createdAt,value
2018-05-18T00:01:14.277Z,11.50
2018-05-18T00:03:40.918Z,11.50
2018-05-18T00:06:07.205Z,11.60
2018-05-18T00:08:34.257Z,11.80
2018-05-18T00:11:00.882Z,11.70
2018-05-18T00:13:27.469Z,11.80
2018-05-18T00:15:53.938Z,11.50
2018-05-18T00:18:20.650Z,11.70
2018-05-18T00:20:47.363Z,11.70
2018-05-18T00:23:13.790Z,11.80
2018-05-18T00:25:40.125Z,11.80
2018-05-18T00:28:06.438Z,11.80
2018-05-18T00:30:32.740Z,11.80
2018-05-18T00:33:00.019Z,11.70
2018-05-18T00:35:26.286Z,11.70
2018-05-18T00:37:52.571Z,11.80
2018-05-18T00:40:19.005Z,11.80
2018-05-18T00:42:45.302Z,11.90
2018-05-18T00:45:11.613Z,11.90
2018-05-18T00:47:37.925Z,11.90
2018-05-18T00:50:04.267Z,11.80
2018-05-18T00:52:30.572Z,11.80
2018-05-18T00:54:57.586Z,11.70
2018-05-18T00:57:23.982Z,11.70
2018-05-18T00:59:50.301Z,11.50
2018-05-18T01:02:17.291Z,11.30
2018-05-18T01:04:43.597Z,11.30
2018-05-18T01:07:09.861Z,11.30
2018-05-18T01:09:36.219Z,11.20
2018-05-18T01:12:02.554Z,11.20
2018-05-18T01:14:28.877Z,11.30
2018-05-18T01:16:55.184Z,11.40
2018-05-18T01:19:22.329Z,11.40
2018-05-18T01:21:48.633Z,11.30
2018-05-18T01:24:14.921Z,11.20
2018-05-18T01:26:41.258Z,11.20
2018-05-18T01:29:07.544Z,11.10
2018-05-18T01:31:33.841Z,11.10
2018-05-18T01:34:00.858Z,11.10
2018-05-18T01:36:27.100Z,11.00
2018-05-18T01:38:53.398Z,11.20
2018-05-18T01:41:20.505Z,11.20
2018-05-18T01:43:46.814Z,11.20
2018-05-18T01:46:13.135Z,11.10
2018-05-18T01:48:39.418Z,11.10
2018-05-18T01:51:05.720Z,11.20
2018-05-18T01:53:32.755Z,11.20
2018-05-18T01:55:59.011Z,11.10
2018-05-18T01:58:25.269Z,11.20
2018-05-18T02:00:51.562Z,11.10
2018-05-18T02:03:17.846Z,11.10
2018-05-18T02:05:44.162Z,11.00
2018-05-18T02:08:10.488Z,11.00
2018-05-18T02:10:36.798Z,10.90
2018-05-18T02:13:03.086Z,10.90
2018-05-18T02:15:30.124Z,10.80
2018-05-18T02:17:56.408Z,10.70
2018-05-18T02:20:22.749Z,10.80
2018-05-18T02:22:49.053Z,10.60
2018-05-18T02:25:16.084Z,10.50
2018-05-18T02:27:42.381Z,10.50
2018-05-18T02:30:09.398Z,10.40
2018-05-18T02:32:36.400Z,10.40
2018-05-18T02:35:02.697Z,10.40
2018-05-18T02:37:29.017Z,10.40
2018-05-18T02:39:55.301Z,10.40
2018-05-18T02:42:22.406Z,10.40
2018-05-18T02:44:48.725Z,10.40
2018-05-18T02:47:15.001Z,10.40
2018-05-18T02:49:41.265Z,10.30
2018-05-18T02:52:07.543Z,10.20
2018-05-18T02:54:33.817Z,10.00
2018-05-18T02:57:00.165Z,10.30
2018-05-18T02:59:27.989Z,10.00
2018-05-18T03:01:54.297Z,10.00
2018-05-18T03:04:20.541Z,10.20
2018-05-18T03:06:47.566Z,10.40
2018-05-18T03:09:14.363Z,10.40
2018-05-18T03:11:41.360Z,10.50
2018-05-18T03:14:07.664Z,10.50
2018-05-18T03:16:34.014Z,10.60
2018-05-18T03:19:00.313Z,10.60
2018-05-18T03:21:26.729Z,10.60
2018-05-18T03:23:53.001Z,10.50
2018-05-18T03:26:19.408Z,10.50
2018-05-18T03:28:45.717Z,10.60
2018-05-18T03:31:12.059Z,10.60
2018-05-18T03:33:38.348Z,10.60
2018-05-18T03:36:05.511Z,10.70
2018-05-18T03:38:32.594Z,10.60
2018-05-18T03:40:59.076Z,10.60
2018-05-18T03:43:26.175Z,10.50
2018-05-18T03:45:52.545Z,10.50
2018-05-18T03:48:18.994Z,10.60
2018-05-18T03:50:45.304Z,10.50
2018-05-18T03:53:11.599Z,10.30
2018-05-18T03:55:48.293Z,10.30
2018-05-18T03:58:15.391Z,10.30
2018-05-18T04:00:41.701Z,10.20
2018-05-18T04:03:20.416Z,10.20
2018-05-18T04:05:59.139Z,10.10
2018-05-18T04:08:52.311Z,10.10
2018-05-18T04:11:18.626Z,10.00
2018-05-18T04:13:46.099Z,10.10
2018-05-18T04:16:13.489Z,10.10
2018-05-18T04:18:41.152Z,10.10
2018-05-18T04:21:08.962Z,10.00
2018-05-18T04:23:36.373Z,10.00
2018-05-18T04:26:03.428Z,10.00
2018-05-18T04:28:30.758Z,10.00
2018-05-18T04:30:57.068Z,10.00
2018-05-18T04:33:23.557Z,10.10
2018-05-18T04:35:50.645Z,10.00
2018-05-18T04:38:16.963Z,10.00
2018-05-18T04:40:43.929Z,10.00
2018-05-18T04:43:10.449Z,9.90
2018-05-18T04:45:36.732Z,9.80
2018-05-18T04:48:03.137Z,9.70
2018-05-18T04:50:29.463Z,9.70
2018-05-18T04:52:56.356Z,9.80
2018-05-18T04:55:22.920Z,9.90
2018-05-18T04:57:49.353Z,9.90
2018-05-18T05:00:15.733Z,9.90
2018-05-18T05:02:42.081Z,9.90
2018-05-18T05:05:09.123Z,10.00
2018-05-18T05:07:36.001Z,9.70
2018-05-18T05:10:03.004Z,9.90
2018-05-18T05:12:30.069Z,10.00
2018-05-18T05:14:57.228Z,9.90
2018-05-18T05:17:23.657Z,9.90
2018-05-18T05:19:50.904Z,10.00
2018-05-18T05:22:17.334Z,10.00
2018-05-18T05:24:44.498Z,10.10
2018-05-18T05:27:11.909Z,10.20
2018-05-18T05:29:38.817Z,10.20
2018-05-18T05:32:05.897Z,10.20
2018-05-18T05:34:32.953Z,10.30
2018-05-18T05:37:00.274Z,10.40
2018-05-18T05:39:27.417Z,10.50
2018-05-18T05:41:54.811Z,10.50
2018-05-18T05:44:21.183Z,10.40
2018-05-18T05:46:47.560Z,10.40
2018-05-18T05:49:13.871Z,10.40
2018-05-18T05:51:40.448Z,10.50
2018-05-18T05:54:06.769Z,10.60
2018-05-18T05:56:33.383Z,10.70
2018-05-18T05:59:00.265Z,10.70
2018-05-18T06:01:26.534Z,10.70
2018-05-18T06:03:52.840Z,10.70
2018-05-18T06:06:19.286Z,10.60
2018-05-18T06:08:46.489Z,10.60
2018-05-18T06:11:12.965Z,10.60
2018-05-18T06:13:39.276Z,10.70
2018-05-18T06:16:06.046Z,10.80
2018-05-18T06:18:32.661Z,10.80
2018-05-18T06:20:59.525Z,10.80
2018-05-18T06:23:26.757Z,10.80
2018-05-18T06:25:54.077Z,10.70
2018-05-18T06:28:20.661Z,10.70
2018-05-18T06:30:47.054Z,10.60
2018-05-18T06:33:13.679Z,10.60
2018-05-18T06:35:41.117Z,10.60
2018-05-18T06:38:07.522Z,10.60
2018-05-18T06:40:33.917Z,10.70
2018-05-18T06:43:00.756Z,10.60
2018-05-18T06:45:27.049Z,10.70
2018-05-18T06:47:53.368Z,10.70
2018-05-18T06:50:19.905Z,10.80
2018-05-18T06:52:46.205Z,10.90
2018-05-18T06:55:13.823Z,10.60
2018-05-18T06:57:40.339Z,10.60
2018-05-18T07:00:07.474Z,10.60
2018-05-18T07:02:34.720Z,10.70
2018-05-18T07:05:01.210Z,11.00
2018-05-18T07:07:27.822Z,10.70
2018-05-18T07:09:54.694Z,10.70
2018-05-18T07:12:21.077Z,10.80
2018-05-18T07:14:48.053Z,10.90
2018-05-18T07:17:15.525Z,11.00
2018-05-18T07:19:41.893Z,11.00
2018-05-18T07:22:09.004Z,11.10
2018-05-18T07:24:35.418Z,11.10
2018-05-18T07:27:01.709Z,11.20
2018-05-18T07:29:28.020Z,11.30
2018-05-18T07:31:54.478Z,11.40
2018-05-18T07:34:20.837Z,11.40
2018-05-18T07:36:48.230Z,11.20
2018-05-18T07:39:14.704Z,11.20
2018-05-18T07:41:40.970Z,11.10
2018-05-18T07:44:07.796Z,11.00
2018-05-18T07:46:34.355Z,11.00
2018-05-18T07:49:02.296Z,11.20
2018-05-18T07:51:29.327Z,11.30
2018-05-18T07:53:56.189Z,11.30
2018-05-18T07:56:23.226Z,11.40
2018-05-18T07:58:49.781Z,11.40
2018-05-18T08:01:16.383Z,11.50
2018-05-18T08:03:42.962Z,11.60
2018-05-18T08:06:10.354Z,11.60
2018-05-18T08:08:36.651Z,11.60
2018-05-18T08:11:02.977Z,11.60
2018-05-18T08:13:29.299Z,11.50
2018-05-18T08:15:57.723Z,11.50
2018-05-18T08:18:24.282Z,11.50
2018-05-18T08:20:51.542Z,11.60
2018-05-18T08:23:17.973Z,11.50
2018-05-18T08:25:44.322Z,11.60
2018-05-18T08:28:10.666Z,11.70
2018-05-18T08:30:49.584Z,11.80
2018-05-18T08:33:16.954Z,11.90
2018-05-18T08:35:43.706Z,11.90
2018-05-18T08:38:11.257Z,12.00
2018-05-18T08:40:37.681Z,12.10
2018-05-18T08:43:04.017Z,12.20
2018-05-18T08:45:30.342Z,12.20
2018-05-18T08:47:57.119Z,12.30
2018-05-18T08:50:24.966Z,12.20
2018-05-18T08:52:51.179Z,12.20
2018-05-18T08:55:18.458Z,11.90
2018-05-18T08:57:45.175Z,12.20
2018-05-18T09:00:11.687Z,12.20
2018-05-18T09:02:38.283Z,12.20
2018-05-18T09:05:04.702Z,12.10
2018-05-18T09:07:30.997Z,12.10
2018-05-18T09:09:57.321Z,12.10
2018-05-18T09:12:23.636Z,12.10
2018-05-18T09:14:49.937Z,12.10
2018-05-18T09:17:16.266Z,12.20
2018-05-18T09:19:42.514Z,12.20
2018-05-18T09:22:08.838Z,12.20
2018-05-18T09:24:35.150Z,12.30
2018-05-18T09:27:02.231Z,12.60
2018-05-18T09:29:29.290Z,12.60
2018-05-18T09:31:55.702Z,12.70
2018-05-18T09:34:22.033Z,12.70
2018-05-18T09:36:49.105Z,12.90
2018-05-18T09:39:15.393Z,12.90
2018-05-18T09:41:41.741Z,13.00
2018-05-18T09:44:08.020Z,13.10
2018-05-18T09:46:34.349Z,13.10
2018-05-18T09:49:00.820Z,13.10
2018-05-18T09:51:27.131Z,13.30
2018-05-18T09:53:53.380Z,13.50
2018-05-18T09:56:19.705Z,13.50
2018-05-18T09:58:46.001Z,13.60
2018-05-18T10:01:12.295Z,13.70
2018-05-18T10:03:38.549Z,13.70
2018-05-18T10:06:04.889Z,13.80
2018-05-18T10:08:32.067Z,13.70
2018-05-18T10:10:58.395Z,13.70
2018-05-18T10:13:26.875Z,13.70
2018-05-18T10:15:53.274Z,13.70
2018-05-18T10:18:20.341Z,13.60
2018-05-18T10:20:46.626Z,13.60
2018-05-18T10:23:12.826Z,13.70
2018-05-18T10:25:39.175Z,13.80
2018-05-18T10:28:05.503Z,13.90
2018-05-18T10:30:32.679Z,14.00
2018-05-18T10:32:58.971Z,13.90
2018-05-18T10:35:25.241Z,13.90
2018-05-18T10:37:51.580Z,13.90
2018-05-18T10:40:18.722Z,14.10
2018-05-18T10:42:45.709Z,14.10
2018-05-18T10:45:12.012Z,14.10
2018-05-18T10:47:38.268Z,14.20
2018-05-18T10:50:05.350Z,14.40
2018-05-18T10:52:31.652Z,14.40
2018-05-18T10:54:58.669Z,14.40
2018-05-18T10:57:24.970Z,14.40
2018-05-18T10:59:51.249Z,14.50
2018-05-18T11:02:17.731Z,14.40
2018-05-18T11:04:44.808Z,14.60
2018-05-18T11:07:11.136Z,14.60
2018-05-18T11:09:37.475Z,14.60
2018-05-18T11:12:04.538Z,14.90
2018-05-18T11:14:31.833Z,15.00
2018-05-18T11:16:58.148Z,15.00
2018-05-18T11:19:24.425Z,15.00
2018-05-18T11:21:50.697Z,15.00
2018-05-18T11:24:17.133Z,15.10
2018-05-18T11:26:43.468Z,15.20
2018-05-18T11:29:09.788Z,15.30
2018-05-18T11:31:36.123Z,15.40
2018-05-18T11:34:03.304Z,15.30
2018-05-18T11:36:29.743Z,15.20
2018-05-18T11:38:56.175Z,15.30
2018-05-18T11:41:22.716Z,15.20
2018-05-18T11:43:49.006Z,15.30
2018-05-18T11:46:16.012Z,15.40
2018-05-18T11:48:42.415Z,15.40
2018-05-18T11:51:08.649Z,15.50
2018-05-18T11:53:35.687Z,15.50
2018-05-18T11:56:02.769Z,15.60
2018-05-18T11:58:29.916Z,15.60
2018-05-18T12:00:56.380Z,15.60
2018-05-18T12:06:25.194Z,15.50
2018-05-18T12:08:52.212Z,15.60
2018-05-18T12:11:18.701Z,15.50
2018-05-18T12:13:45.778Z,15.80
2018-05-18T12:16:12.832Z,15.80
2018-05-18T12:18:39.896Z,15.90
2018-05-18T12:21:06.541Z,15.90
2018-05-18T12:23:33.006Z,15.90
2018-05-18T12:25:59.454Z,16.00
2018-05-18T12:28:26.005Z,16.10
2018-05-18T12:30:53.110Z,16.20
2018-05-18T12:33:20.438Z,16.30
2018-05-18T12:35:46.804Z,16.20
2018-05-18T12:38:13.238Z,16.40
2018-05-18T12:40:39.623Z,16.50
2018-05-18T12:43:06.715Z,16.60
2018-05-18T12:45:32.933Z,16.60
2018-05-18T12:47:59.376Z,16.70
2018-05-18T12:50:25.892Z,16.70
2018-05-18T12:52:53.302Z,16.60
2018-05-18T12:55:19.590Z,16.70
2018-05-18T12:57:45.984Z,16.60
2018-05-18T13:00:13.217Z,16.70
2018-05-18T13:02:39.905Z,16.60
2018-05-18T13:05:06.397Z,16.80
2018-05-18T13:07:33.114Z,16.80
2018-05-18T13:10:00.359Z,16.80
2018-05-18T13:12:26.824Z,17.10
2018-05-18T13:14:53.362Z,17.10
2018-05-18T13:17:19.944Z,17.20
2018-05-18T13:19:46.237Z,17.30
2018-05-18T13:22:13.051Z,17.30
2018-05-18T13:24:39.860Z,17.30
2018-05-18T13:27:06.841Z,17.40
2018-05-18T13:29:33.330Z,17.40
2018-05-18T13:31:59.896Z,17.50
2018-05-18T13:34:27.256Z,17.50
2018-05-18T13:36:53.676Z,17.50
2018-05-18T13:39:20.369Z,17.70
2018-05-18T13:41:47.386Z,17.70
2018-05-18T13:44:14.667Z,17.60
2018-05-18T13:46:40.914Z,17.50
2018-05-18T13:49:07.399Z,17.60
2018-05-18T13:51:34.186Z,17.50
2018-05-18T13:54:00.453Z,17.70
2018-05-18T13:56:26.883Z,17.80
2018-05-18T13:58:53.550Z,17.90
2018-05-18T14:01:20.700Z,17.90
2018-05-18T14:03:47.009Z,17.90
2018-05-18T14:06:14.098Z,18.40
2018-05-18T14:08:40.411Z,18.40
2018-05-18T14:11:07.041Z,18.70
2018-05-18T14:13:33.494Z,18.80
2018-05-18T14:16:00.727Z,19.00
2018-05-18T14:18:27.844Z,18.90
2018-05-18T14:20:54.289Z,19.20
2018-05-18T14:23:20.543Z,19.50
2018-05-18T14:25:47.122Z,19.60
2018-05-18T14:28:13.736Z,19.60
2018-05-18T14:30:40.269Z,19.80
2018-05-18T14:33:06.532Z,19.80
2018-05-18T14:35:33.278Z,20.10
2018-05-18T14:38:00.631Z,20.60
2018-05-18T14:40:27.633Z,20.80
2018-05-18T14:42:55.726Z,20.90
2018-05-18T14:50:55.580Z,21.60
2018-05-18T14:53:21.888Z,22.00
2018-05-18T14:55:48.508Z,22.00
2018-05-18T14:58:16.015Z,21.70
2018-05-18T15:00:42.304Z,21.70
2018-05-18T15:03:08.884Z,21.80
2018-05-18T15:05:35.152Z,21.60
2018-05-18T15:08:02.309Z,21.20
2018-05-18T15:10:29.136Z,21.20
2018-05-18T15:12:56.496Z,21.20
2018-05-18T15:15:22.996Z,21.20
2018-05-18T15:17:50.095Z,20.60
2018-05-18T15:48:47.560Z,18.80
2018-05-18T15:51:20.703Z,18.40
2018-05-18T15:53:53.811Z,18.40
2018-05-18T15:56:26.166Z,18.40
2018-05-18T15:58:58.404Z,18.40
2018-05-18T16:01:31.467Z,18.30
2018-05-18T16:04:04.677Z,18.40
2018-05-18T16:06:37.328Z,18.30
2018-05-18T16:09:09.711Z,18.40
2018-05-18T16:11:41.894Z,18.40
2018-05-18T16:14:14.260Z,18.40
2018-05-18T16:16:46.650Z,18.50
2018-05-18T16:19:18.934Z,18.70
2018-05-18T16:21:51.297Z,18.70
2018-05-18T16:24:23.779Z,18.90
2018-05-18T16:30:06.579Z,19.10
2018-05-18T16:32:39.496Z,19.20
2018-05-18T16:35:11.795Z,19.20
2018-05-18T16:37:44.132Z,19.30
2018-05-18T16:40:17.148Z,19.30
2018-05-18T16:42:49.755Z,19.30
2018-05-18T16:45:22.161Z,19.40
2018-05-18T16:47:54.695Z,19.40
2018-05-18T16:50:28.597Z,19.10
2018-05-18T16:53:01.777Z,19.00
2018-05-18T16:55:34.127Z,18.80
2018-05-18T16:58:06.505Z,18.90
2018-05-18T17:00:38.933Z,18.90
2018-05-18T17:03:12.098Z,18.70
2018-05-18T17:05:44.447Z,18.50
2018-05-18T17:08:16.803Z,18.00
2018-05-18T17:16:59.811Z,18.70
2018-05-18T17:19:33.004Z,18.80
2018-05-18T17:22:05.259Z,18.80
2018-05-18T17:24:37.519Z,18.90
2018-05-18T17:27:10.639Z,18.80
2018-05-18T17:29:43.025Z,18.80
2018-05-18T17:32:16.102Z,18.90
2018-05-18T17:34:48.489Z,18.90
2018-05-18T17:37:20.868Z,19.00
2018-05-18T17:39:53.335Z,19.00
2018-05-18T17:42:26.139Z,19.00
2018-05-18T17:44:58.369Z,18.90
2018-05-18T17:47:30.752Z,18.80
2018-05-18T17:53:14.586Z,18.70
2018-05-18T17:55:47.487Z,18.60
2018-05-18T17:58:20.504Z,18.60
2018-05-18T18:00:52.739Z,18.50
2018-05-18T18:03:25.076Z,18.50
2018-05-18T18:05:57.974Z,18.50
2018-05-18T18:08:31.062Z,18.40
2018-05-18T18:11:03.437Z,18.30
2018-05-18T18:13:35.796Z,18.30
2018-05-18T18:16:08.219Z,18.10
2018-05-18T18:18:40.634Z,18.10
2018-05-18T18:21:12.790Z,17.90
2018-05-18T18:23:45.190Z,17.70
2018-05-18T18:26:17.809Z,17.60
2018-05-18T18:28:50.258Z,17.40
2018-05-18T18:31:22.567Z,17.30
2018-05-18T18:33:55.691Z,17.00
2018-05-18T18:36:28.174Z,17.00
2018-05-18T18:39:00.540Z,17.00
2018-05-18T18:41:32.903Z,16.90
2018-05-18T18:44:05.292Z,16.90
2018-05-18T18:46:37.688Z,16.80
2018-05-18T18:49:10.185Z,16.70
2018-05-18T18:51:42.466Z,16.70
2018-05-18T18:54:15.090Z,16.80
2018-05-18T18:56:47.575Z,16.70
2018-05-18T18:59:19.812Z,16.60
2018-05-18T19:01:52.493Z,16.50
2018-05-18T19:04:25.507Z,16.50
2018-05-18T19:06:58.241Z,16.40
2018-05-18T19:09:30.759Z,16.00
2018-05-18T19:12:03.231Z,16.50
2018-05-18T19:14:36.342Z,16.40
2018-05-18T19:17:09.599Z,16.20
2018-05-18T19:19:42.043Z,16.20
2018-05-18T19:22:14.368Z,16.10
2018-05-18T19:24:46.740Z,16.00
2018-05-18T19:27:19.316Z,15.90
2018-05-18T19:29:51.629Z,15.90
2018-05-18T19:32:24.056Z,15.80
2018-05-18T19:34:57.068Z,15.80
2018-05-18T19:37:29.451Z,15.70
2018-05-18T19:40:01.843Z,15.70
2018-05-18T19:42:35.544Z,15.60
2018-05-18T19:45:01.693Z,15.60
2018-05-18T19:47:34.220Z,15.60
2018-05-18T19:50:07.522Z,15.30
2018-05-18T19:52:40.147Z,15.30
2018-05-18T19:55:12.778Z,15.20
2018-05-18T19:57:45.322Z,15.10
2018-05-18T20:00:17.624Z,15.00
2018-05-18T20:02:50.241Z,15.00
2018-05-18T20:05:23.423Z,14.80
2018-05-18T20:07:56.011Z,14.70
2018-05-18T20:10:29.069Z,14.70
2018-05-18T20:13:02.331Z,14.60
2018-05-18T20:15:34.915Z,14.60
2018-05-18T20:18:07.335Z,14.60
2018-05-18T20:20:39.763Z,14.60
2018-05-18T20:23:12.749Z,14.30
2018-05-18T20:25:44.964Z,14.30
2018-05-18T20:28:20.160Z,14.30
2018-05-18T20:30:52.639Z,14.30
2018-05-18T20:33:26.031Z,14.30
2018-05-18T20:35:58.350Z,14.20
2018-05-18T20:38:31.300Z,14.20
2018-05-18T20:41:03.707Z,14.20
2018-05-18T20:43:35.993Z,14.20
2018-05-18T20:46:08.554Z,13.90
2018-05-18T20:48:41.154Z,14.20
2018-05-18T20:51:14.204Z,14.00
2018-05-18T20:53:46.568Z,13.90
2018-05-18T20:56:18.948Z,13.80
2018-05-18T20:58:51.440Z,13.70
2018-05-18T21:01:24.215Z,13.60
2018-05-18T21:03:57.407Z,13.50
2018-05-18T21:06:30.623Z,13.50
2018-05-18T21:09:03.072Z,13.40
2018-05-18T21:11:35.741Z,13.30
2018-05-18T21:14:08.757Z,13.50
2018-05-18T21:16:40.977Z,13.40
2018-05-18T21:19:13.451Z,13.40
2018-05-18T21:21:45.765Z,12.90
2018-05-18T21:24:18.907Z,13.20
2018-05-18T21:26:53.494Z,13.10
2018-05-18T21:29:26.489Z,13.30
2018-05-18T21:31:58.940Z,13.20
2018-05-18T21:34:32.048Z,13.10
2018-05-18T21:37:05.178Z,13.10
2018-05-18T21:39:37.338Z,13.10
2018-05-18T21:42:10.294Z,13.10
2018-05-18T21:44:42.514Z,13.00
2018-05-18T21:47:14.871Z,13.00
2018-05-18T21:49:47.225Z,12.90
2018-05-18T21:52:20.286Z,12.70
2018-05-18T21:54:53.545Z,12.60
2018-05-18T21:57:25.925Z,12.60
2018-05-18T21:59:58.184Z,12.60
2018-05-18T22:02:31.237Z,12.50
2018-05-18T22:05:04.371Z,12.50
2018-05-18T22:07:36.932Z,12.50
2018-05-18T22:10:09.078Z,12.40
2018-05-18T22:12:41.497Z,12.40
2018-05-18T22:15:13.807Z,12.40
2018-05-18T22:17:46.227Z,12.40
2018-05-18T22:20:18.546Z,12.40
2018-05-18T22:22:51.697Z,12.40
2018-05-18T22:25:24.837Z,12.50
2018-05-18T22:27:57.917Z,12.40
2018-05-18T22:30:30.230Z,12.40
2018-05-18T22:33:02.675Z,12.50
2018-05-18T22:35:34.991Z,12.60
2018-05-18T22:38:07.385Z,12.50
2018-05-18T22:40:39.804Z,12.50
2018-05-18T22:43:12.047Z,12.40
2018-05-18T22:45:44.575Z,12.40
2018-05-18T22:48:17.750Z,12.50
2018-05-18T22:50:50.143Z,12.50
2018-05-18T22:53:22.567Z,12.60
2018-05-18T22:55:55.718Z,12.60
2018-05-18T22:58:28.033Z,12.50
2018-05-18T23:01:00.486Z,12.50
2018-05-18T23:03:33.571Z,12.60
2018-05-18T23:06:06.616Z,12.60
2018-05-18T23:08:42.211Z,12.60
2018-05-18T23:11:14.621Z,12.70
2018-05-18T23:13:47.010Z,12.70
2018-05-18T23:16:20.204Z,12.80
2018-05-18T23:18:52.584Z,12.70
2018-05-18T23:21:24.955Z,12.80
2018-05-18T23:23:57.416Z,12.80
2018-05-18T23:26:29.752Z,12.80
2018-05-18T23:29:02.176Z,12.80
2018-05-18T23:31:34.480Z,12.80
2018-05-18T23:34:06.867Z,12.70
2018-05-18T23:36:39.182Z,12.70
2018-05-18T23:39:11.668Z,12.70
2018-05-18T23:41:44.033Z,12.40
2018-05-18T23:44:16.380Z,12.60
2018-05-18T23:46:48.720Z,12.50
2018-05-18T23:49:21.245Z,12.50
2018-05-18T23:51:53.797Z,12.50
2018-05-18T23:54:26.946Z,12.50
2018-05-18T23:56:59.118Z,12.40
2018-05-18T23:59:31.462Z,12.50
